Time;durP1;ratioP1;P1;durP2;ratioP2;P2;SDS_P1;SDS_P2;PMS_P1;PMS_P2;Temp;Humidity;BMP_temperature;BMP_pressure;BME280_temperature;BME280_humidity;BME280_pressure;Samples;Min_cycle;Max_cycle;Signal;HPM_P1;HPM_P2
2022/08/08 00:01:35;;;;;;;;;;;13.30;99.90;;;;;;4983141;28;19932;-73
2022/08/08 00:04:11;;;;;;;;;;;13.30;99.90;;;;;;5015790;28;19929;-72
2022/08/08 00:06:41;;;;;;;;;;;13.30;99.90;;;;;;4998703;28;20345;-72
2022/08/08 00:09:14;;;;;;;;;;;13.40;99.90;;;;;;5017779;28;19917;-72
2022/08/08 00:11:41;;;;;;;;;;;13.40;99.90;;;;;;5016787;28;20459;-72
2022/08/08 00:14:21;;;;;;;;;;;13.40;99.90;;;;;;5016666;28;20345;-72
2022/08/08 00:16:52;;;;;;;;;;;13.40;99.90;;;;;;5016467;28;20012;-71
2022/08/08 00:19:17;;;;;;;;;;;13.30;99.90;;;;;;4995506;28;20008;-72
2022/08/08 00:21:48;;;;;;;;;;;13.30;99.90;;;;;;5017102;28;20019;-72
2022/08/08 00:24:16;;;;;;;;;;;13.30;99.90;;;;;;5014414;28;19983;-73
2022/08/08 00:26:45;;;;;;;;;;;13.30;99.90;;;;;;5015966;28;19913;-71
2022/08/08 00:29:15;;;;;;;;;;;13.20;99.90;;;;;;4999355;28;20509;-73
2022/08/08 00:31:43;;;;;;;;;;;13.10;99.90;;;;;;5013358;28;19971;-72
2022/08/08 00:37:16;;;;;;;;;;;13.00;99.90;;;;;;5016620;28;19979;-72
2022/08/08 00:39:50;;;;;;;;;;;12.90;99.90;;;;;;5016800;28;19947;-73
2022/08/08 00:42:21;;;;;;;;;;;12.90;99.90;;;;;;5007094;28;20005;-72
2022/08/08 00:45:05;;;;;;;;;;;13.00;99.90;;;;;;5016135;28;19980;-72
2022/08/08 00:47:50;;;;;;;;;;;13.00;99.90;;;;;;4998314;28;19917;-72
2022/08/08 00:50:30;;;;;;;;;;;13.00;99.90;;;;;;5015786;28;19917;-72
2022/08/08 00:53:05;;;;;;;;;;;13.10;99.90;;;;;;5017642;28;19935;-72
2022/08/08 00:55:33;;;;;;;;;;;13.00;99.90;;;;;;5013111;28;19913;-72
2022/08/08 00:58:17;;;;;;;;;;;13.00;99.90;;;;;;5014760;28;19974;-72
2022/08/08 01:00:51;;;;;;;;;;;13.00;99.90;;;;;;5013527;28;19925;-72
2022/08/08 01:03:19;;;;;;;;;;;12.90;99.90;;;;;;4999506;28;19922;-71
2022/08/08 01:05:57;;;;;;;;;;;12.90;99.90;;;;;;5009130;28;19923;-72
2022/08/08 01:08:48;;;;;;;;;;;12.80;99.90;;;;;;5004279;28;19923;-71
2022/08/08 01:11:14;;;;;;;;;;;12.70;99.90;;;;;;4982498;28;20395;-72
2022/08/08 01:13:46;;;;;;;;;;;12.60;99.90;;;;;;5014839;28;19955;-72
2022/08/08 01:16:20;;;;;;;;;;;12.60;99.90;;;;;;5015820;28;19923;-71
2022/08/08 01:19:04;;;;;;;;;;;12.40;99.90;;;;;;5015439;28;19913;-72
2022/08/08 01:21:42;;;;;;;;;;;12.40;99.90;;;;;;5015765;28;19921;-72
2022/08/08 01:24:19;;;;;;;;;;;12.30;99.90;;;;;;5016060;28;19920;-72
2022/08/08 01:26:44;;;;;;;;;;;12.30;99.90;;;;;;5015359;28;20010;-72
2022/08/08 01:29:19;;;;;;;;;;;12.30;99.90;;;;;;5015437;28;20521;-72
2022/08/08 01:31:48;;;;;;;;;;;12.20;99.90;;;;;;5014426;28;19917;-71
2022/08/08 01:34:32;;;;;;;;;;;12.10;99.90;;;;;;5014976;28;20756;-72
2022/08/08 01:37:00;;;;;;;;;;;12.00;99.90;;;;;;5003944;28;19925;-72
2022/08/08 01:39:26;;;;;;;;;;;12.00;99.90;;;;;;4978131;28;20348;-71
2022/08/08 01:42:04;;;;;;;;;;;11.90;99.90;;;;;;5005619;28;19997;-72
2022/08/08 01:44:29;;;;;;;;;;;11.90;99.90;;;;;;5012550;28;19921;-72
2022/08/08 01:47:01;;;;;;;;;;;11.90;99.90;;;;;;5012409;28;20319;-72
2022/08/08 01:49:45;;;;;;;;;;;11.80;99.90;;;;;;5014955;28;20066;-72
2022/08/08 01:52:13;;;;;;;;;;;11.80;99.90;;;;;;5014907;28;19932;-72
2022/08/08 01:54:44;;;;;;;;;;;11.80;99.90;;;;;;5015091;28;19961;-72
2022/08/08 01:57:10;;;;;;;;;;;11.80;99.90;;;;;;5015216;28;19944;-72
2022/08/08 01:59:54;;;;;;;;;;;11.80;99.90;;;;;;5012735;28;19925;-71
2022/08/08 02:02:35;;;;;;;;;;;11.80;99.90;;;;;;5013383;28;19925;-71
2022/08/08 02:05:11;;;;;;;;;;;11.80;99.90;;;;;;4996883;28;20015;-72
2022/08/08 02:07:55;;;;;;;;;;;11.90;99.90;;;;;;4997469;28;20031;-72
2022/08/08 02:10:40;;;;;;;;;;;11.90;99.90;;;;;;5014424;28;19917;-72
2022/08/08 02:13:11;;;;;;;;;;;11.90;99.90;;;;;;5010922;28;20483;-72
2022/08/08 02:16:12;;;;;;;;;;;11.90;99.90;;;;;;5012287;28;19917;-72
2022/08/08 02:18:41;;;;;;;;;;;11.80;99.90;;;;;;4972777;28;20012;-72
2022/08/08 02:24:03;;;;;;;;;;;11.70;99.90;;;;;;5014738;28;20034;-72
2022/08/08 02:26:32;;;;;;;;;;;11.60;99.90;;;;;;5014969;28;19928;-72
2022/08/08 02:29:09;;;;;;;;;;;11.50;99.90;;;;;;5009733;28;19917;-72
2022/08/08 02:31:54;;;;;;;;;;;11.40;99.90;;;;;;5000714;28;20402;-72
2022/08/08 02:34:22;;;;;;;;;;;11.50;99.90;;;;;;4996394;28;19956;-72
2022/08/08 02:36:50;;;;;;;;;;;11.50;99.90;;;;;;5026634;28;19912;-72
2022/08/08 02:39:42;;;;;;;;;;;11.50;99.90;;;;;;5034466;28;19928;-72
2022/08/08 02:42:43;;;;;;;;;;;11.50;99.90;;;;;;4983497;28;19975;-72
2022/08/08 02:45:16;;;;;;;;;;;11.40;99.90;;;;;;4933303;28;20618;-72
2022/08/08 02:47:48;;;;;;;;;;;11.30;99.90;;;;;;4999228;28;19925;-72
2022/08/08 02:50:19;;;;;;;;;;;11.20;99.90;;;;;;4996881;28;19913;-73
2022/08/08 02:52:54;;;;;;;;;;;11.20;99.90;;;;;;5018479;28;19928;-71
2022/08/08 02:55:43;;;;;;;;;;;11.20;99.90;;;;;;5014694;28;20810;-72
2022/08/08 02:58:27;;;;;;;;;;;11.10;99.90;;;;;;4997816;28;19929;-73
2022/08/08 03:01:20;;;;;;;;;;;11.10;99.90;;;;;;4999055;28;19989;-72
2022/08/08 03:03:58;;;;;;;;;;;11.00;99.90;;;;;;5004955;28;19925;-72
2022/08/08 03:06:59;;;;;;;;;;;11.00;99.90;;;;;;5014958;28;19913;-72
2022/08/08 03:09:43;;;;;;;;;;;11.00;99.90;;;;;;4900065;29;19934;-72
2022/08/08 03:12:08;;;;;;;;;;;11.00;99.90;;;;;;4991232;28;19956;-72
2022/08/08 03:14:53;;;;;;;;;;;11.00;99.90;;;;;;4997777;28;19952;-72
2022/08/08 03:17:38;;;;;;;;;;;10.90;99.90;;;;;;5002547;28;20029;-72
2022/08/08 03:20:09;;;;;;;;;;;10.90;99.90;;;;;;4994402;28;20007;-72
2022/08/08 03:22:51;;;;;;;;;;;10.80;99.90;;;;;;5015621;28;19935;-71
2022/08/08 03:25:17;;;;;;;;;;;10.80;99.90;;;;;;4997907;28;19917;-72
2022/08/08 03:27:45;;;;;;;;;;;10.70;99.90;;;;;;5021384;28;19987;-72
2022/08/08 03:30:12;;;;;;;;;;;10.70;99.90;;;;;;5020073;28;19978;-72
2022/08/08 03:35:22;;;;;;;;;;;10.70;99.90;;;;;;5018132;28;19935;-72
2022/08/08 03:37:48;;;;;;;;;;;10.70;99.90;;;;;;5015430;28;20729;-73
2022/08/08 03:40:16;;;;;;;;;;;10.70;99.90;;;;;;5001104;28;20039;-72
2022/08/08 03:42:42;;;;;;;;;;;10.60;99.90;;;;;;5015263;28;19917;-72
2022/08/08 03:45:11;;;;;;;;;;;10.50;99.90;;;;;;5015963;28;19928;-72
2022/08/08 03:47:37;;;;;;;;;;;10.50;99.90;;;;;;5004103;28;19948;-72
2022/08/08 03:50:02;;;;;;;;;;;10.50;99.90;;;;;;5018065;28;19917;-71
2022/08/08 03:52:29;;;;;;;;;;;10.60;99.90;;;;;;4998757;28;19920;-72
2022/08/08 03:54:54;;;;;;;;;;;10.60;99.90;;;;;;5006067;28;19963;-72
2022/08/08 03:57:20;;;;;;;;;;;10.70;99.90;;;;;;5017987;28;19952;-72
2022/08/08 03:59:45;;;;;;;;;;;10.70;99.90;;;;;;5019161;28;19979;-72
2022/08/08 04:02:15;;;;;;;;;;;10.70;99.90;;;;;;5022083;28;19932;-72
2022/08/08 04:04:41;;;;;;;;;;;10.80;99.90;;;;;;5018330;28;19944;-72
2022/08/08 04:07:06;;;;;;;;;;;10.70;99.90;;;;;;5013120;28;19913;-72
2022/08/08 04:09:32;;;;;;;;;;;10.70;99.90;;;;;;4999185;28;19917;-72
2022/08/08 04:12:00;;;;;;;;;;;10.60;99.90;;;;;;5014110;28;19913;-71
2022/08/08 04:14:26;;;;;;;;;;;10.60;99.90;;;;;;5006528;28;20339;-72
2022/08/08 04:16:52;;;;;;;;;;;10.50;99.90;;;;;;5018322;28;20027;-72
2022/08/08 04:19:18;;;;;;;;;;;10.50;99.90;;;;;;5022396;28;20329;-72
2022/08/08 04:21:43;;;;;;;;;;;10.50;99.90;;;;;;5013860;28;20344;-73
2022/08/08 04:24:09;;;;;;;;;;;10.50;99.90;;;;;;5017105;28;19927;-72
2022/08/08 04:26:34;;;;;;;;;;;10.50;99.90;;;;;;5016979;28;19963;-72
2022/08/08 04:29:00;;;;;;;;;;;10.50;99.90;;;;;;5017753;28;20019;-72
2022/08/08 04:31:25;;;;;;;;;;;10.60;99.90;;;;;;5013644;28;19979;-72
2022/08/08 04:33:51;;;;;;;;;;;10.60;99.90;;;;;;4999636;28;19913;-72
2022/08/08 04:36:16;;;;;;;;;;;10.60;99.90;;;;;;5015749;28;19964;-71
2022/08/08 04:38:42;;;;;;;;;;;10.60;99.90;;;;;;5017527;28;19967;-72
2022/08/08 04:41:08;;;;;;;;;;;10.50;99.90;;;;;;5015753;28;20269;-72
2022/08/08 04:43:33;;;;;;;;;;;10.50;99.90;;;;;;5016952;28;20469;-72
2022/08/08 04:45:59;;;;;;;;;;;10.40;99.90;;;;;;4998020;28;20003;-72
2022/08/08 04:48:24;;;;;;;;;;;10.40;99.90;;;;;;5016166;28;19949;-72
2022/08/08 04:50:50;;;;;;;;;;;10.30;99.90;;;;;;5015664;28;20368;-72
2022/08/08 04:53:16;;;;;;;;;;;10.20;99.90;;;;;;5032541;28;20396;-72
2022/08/08 04:55:41;;;;;;;;;;;10.30;99.90;;;;;;5015920;28;19921;-71
2022/08/08 04:58:12;;;;;;;;;;;10.30;99.90;;;;;;5011696;28;19929;-71
2022/08/08 05:00:38;;;;;;;;;;;10.30;99.90;;;;;;5006243;28;19972;-72
2022/08/08 05:03:04;;;;;;;;;;;10.40;99.90;;;;;;5018778;28;20031;-72
2022/08/08 05:05:29;;;;;;;;;;;10.50;99.90;;;;;;5015069;28;20249;-71
2022/08/08 05:07:55;;;;;;;;;;;10.60;99.90;;;;;;5004474;28;20387;-72
2022/08/08 05:10:21;;;;;;;;;;;10.70;99.90;;;;;;5014827;28;20000;-72
2022/08/08 05:12:46;;;;;;;;;;;10.70;99.90;;;;;;5017505;28;20435;-72
2022/08/08 05:15:12;;;;;;;;;;;10.70;99.90;;;;;;5015207;28;20097;-72
2022/08/08 05:17:37;;;;;;;;;;;10.80;99.90;;;;;;4997316;28;19940;-72
2022/08/08 05:20:03;;;;;;;;;;;10.80;99.90;;;;;;4998498;28;19926;-72
2022/08/08 05:22:28;;;;;;;;;;;10.70;99.90;;;;;;4997242;28;20272;-71
2022/08/08 05:24:54;;;;;;;;;;;10.60;99.90;;;;;;5012740;28;19928;-71
2022/08/08 05:27:20;;;;;;;;;;;10.70;99.90;;;;;;5021342;28;19921;-72
2022/08/08 05:29:46;;;;;;;;;;;10.70;99.90;;;;;;5022292;28;20020;-71
2022/08/08 05:32:11;;;;;;;;;;;10.70;99.90;;;;;;5021577;28;20021;-72
2022/08/08 05:34:41;;;;;;;;;;;10.80;99.90;;;;;;5025654;28;20342;-72
2022/08/08 05:37:07;;;;;;;;;;;10.80;99.90;;;;;;5010898;28;19917;-72
2022/08/08 05:39:33;;;;;;;;;;;10.80;99.90;;;;;;4996922;28;19921;-71
2022/08/08 05:42:00;;;;;;;;;;;10.90;99.90;;;;;;5006354;28;19974;-72
2022/08/08 05:44:28;;;;;;;;;;;11.10;99.90;;;;;;5015606;28;20114;-71
2022/08/08 05:46:54;;;;;;;;;;;11.20;99.90;;;;;;5024693;28;19916;-71
2022/08/08 05:49:20;;;;;;;;;;;11.40;99.90;;;;;;5024388;28;20015;-72
2022/08/08 05:51:46;;;;;;;;;;;11.40;99.90;;;;;;5024649;28;20023;-71
2022/08/08 05:54:12;;;;;;;;;;;11.50;99.90;;;;;;5024776;28;20012;-72
2022/08/08 05:56:38;;;;;;;;;;;11.70;99.90;;;;;;5024770;28;20007;-72
2022/08/08 05:59:04;;;;;;;;;;;11.70;99.90;;;;;;5020051;28;19921;-72
2022/08/08 06:01:30;;;;;;;;;;;11.80;99.90;;;;;;5021286;28;19921;-72
2022/08/08 06:03:59;;;;;;;;;;;11.90;99.90;;;;;;5025440;28;20415;-72
2022/08/08 06:06:27;;;;;;;;;;;12.10;99.90;;;;;;5024271;28;19925;-71
2022/08/08 06:08:54;;;;;;;;;;;12.10;99.90;;;;;;5020280;28;19917;-72
2022/08/08 06:11:20;;;;;;;;;;;12.20;99.90;;;;;;5013320;28;19921;-71
2022/08/08 06:13:46;;;;;;;;;;;12.30;99.90;;;;;;5007000;28;20292;-71
2022/08/08 06:16:15;;;;;;;;;;;12.40;99.90;;;;;;5012181;28;19968;-71
2022/08/08 06:18:41;;;;;;;;;;;12.50;99.90;;;;;;5020768;28;20467;-71
2022/08/08 06:21:07;;;;;;;;;;;12.60;99.90;;;;;;5033519;28;19932;-73
2022/08/08 06:23:33;;;;;;;;;;;12.70;99.90;;;;;;5016262;28;19928;-73
2022/08/08 06:26:04;;;;;;;;;;;12.80;99.90;;;;;;5006714;28;19917;-73
2022/08/08 06:28:31;;;;;;;;;;;12.90;99.90;;;;;;5015404;28;19997;-74
2022/08/08 06:30:58;;;;;;;;;;;13.00;99.90;;;;;;5004605;28;19917;-74
2022/08/08 06:33:26;;;;;;;;;;;13.10;99.90;;;;;;5011967;28;19917;-73
2022/08/08 06:35:53;;;;;;;;;;;13.20;99.90;;;;;;5008265;28;20339;-74
2022/08/08 06:38:21;;;;;;;;;;;13.30;99.90;;;;;;4997181;28;19972;-74
2022/08/08 06:40:49;;;;;;;;;;;13.40;99.90;;;;;;5015029;28;19925;-74
2022/08/08 06:43:17;;;;;;;;;;;13.50;99.90;;;;;;5008836;28;19941;-73
2022/08/08 06:45:42;;;;;;;;;;;13.70;99.90;;;;;;5008957;28;19924;-73
2022/08/08 06:48:08;;;;;;;;;;;13.80;99.90;;;;;;5006974;28;19917;-73
2022/08/08 06:50:34;;;;;;;;;;;13.90;99.90;;;;;;5010356;28;20042;-71
2022/08/08 06:53:00;;;;;;;;;;;14.00;99.90;;;;;;5005017;28;19913;-71
2022/08/08 06:55:26;;;;;;;;;;;14.20;99.90;;;;;;5008629;28;19967;-72
2022/08/08 06:57:51;;;;;;;;;;;14.40;99.90;;;;;;4996569;28;20067;-72
2022/08/08 07:00:17;;;;;;;;;;;14.60;99.90;;;;;;4999250;28;19925;-74
2022/08/08 07:02:51;;;;;;;;;;;14.70;99.90;;;;;;4981846;28;19959;-74
2022/08/08 07:05:21;;;;;;;;;;;14.90;99.90;;;;;;4998800;28;19928;-73
2022/08/08 07:08:00;;;;;;;;;;;15.10;99.90;;;;;;4999343;28;19939;-74
2022/08/08 07:10:28;;;;;;;;;;;15.20;99.90;;;;;;5002358;28;19931;-74
2022/08/08 07:13:03;;;;;;;;;;;15.50;99.90;;;;;;5019659;28;20502;-73
2022/08/08 07:15:47;;;;;;;;;;;15.60;99.90;;;;;;5016471;28;19917;-73
2022/08/08 07:18:21;;;;;;;;;;;15.70;99.90;;;;;;5016782;28;20008;-73
2022/08/08 07:20:47;;;;;;;;;;;15.90;99.90;;;;;;5017209;28;20293;-74
2022/08/08 07:23:13;;;;;;;;;;;16.10;99.90;;;;;;5008929;28;19925;-74
2022/08/08 07:25:39;;;;;;;;;;;16.30;99.90;;;;;;5014396;28;20303;-74
2022/08/08 07:28:10;;;;;;;;;;;16.50;99.90;;;;;;5016904;28;19917;-75
2022/08/08 07:30:36;;;;;;;;;;;16.60;99.90;;;;;;5016493;28;20408;-75
2022/08/08 07:33:02;;;;;;;;;;;16.70;99.90;;;;;;5014188;28;19917;-73
2022/08/08 07:35:28;;;;;;;;;;;16.90;99.90;;;;;;5015291;28;19924;-74
2022/08/08 07:37:55;;;;;;;;;;;17.10;99.90;;;;;;5011264;28;20015;-74
2022/08/08 07:40:22;;;;;;;;;;;17.40;99.90;;;;;;5015792;28;19924;-74
2022/08/08 07:42:49;;;;;;;;;;;17.60;99.90;;;;;;5013562;28;19964;-73
2022/08/08 07:45:15;;;;;;;;;;;17.80;99.90;;;;;;4999266;28;20028;-73
2022/08/08 07:47:40;;;;;;;;;;;18.00;99.90;;;;;;4993800;28;20667;-73
2022/08/08 07:50:06;;;;;;;;;;;18.30;99.90;;;;;;4996251;28;20023;-74
2022/08/08 07:52:32;;;;;;;;;;;18.50;99.90;;;;;;4994106;28;20097;-74
2022/08/08 07:55:00;;;;;;;;;;;20.20;99.90;;;;;;5004696;28;19917;-74
2022/08/08 07:57:26;;;;;;;;;;;24.20;99.90;;;;;;5019896;28;19925;-71
2022/08/08 08:00:04;;;;;;;;;;;28.10;92.10;;;;;;5015451;28;19933;-71
2022/08/08 08:02:38;;;;;;;;;;;31.20;73.20;;;;;;4998006;28;20460;-71
2022/08/08 08:05:10;;;;;;;;;;;32.50;57.60;;;;;;4991538;28;19917;-71
2022/08/08 08:07:36;;;;;;;;;;;35.20;49.80;;;;;;5015457;28;20428;-72
2022/08/08 08:10:03;;;;;;;;;;;36.80;43.80;;;;;;5016126;28;19964;-71
2022/08/08 08:12:28;;;;;;;;;;;37.80;41.10;;;;;;5015178;28;19996;-72
2022/08/08 08:14:59;;;;;;;;;;;38.30;38.70;;;;;;5016320;28;19995;-71
2022/08/08 08:17:26;;;;;;;;;;;38.60;36.60;;;;;;5012577;28;20392;-71
2022/08/08 08:19:55;;;;;;;;;;;38.70;35.70;;;;;;5009021;28;19931;-72
2022/08/08 08:22:20;;;;;;;;;;;39.60;34.60;;;;;;5011803;28;19925;-71
2022/08/08 08:24:46;;;;;;;;;;;38.70;36.50;;;;;;4993707;28;19928;-71
2022/08/08 08:27:11;;;;;;;;;;;39.50;34.40;;;;;;4980400;28;19924;-71
2022/08/08 08:29:37;;;;;;;;;;;40.50;33.80;;;;;;5002229;28;19917;-80
2022/08/08 08:32:03;;;;;;;;;;;40.40;32.20;;;;;;5000401;28;20159;-71
2022/08/08 08:34:29;;;;;;;;;;;40.30;32.00;;;;;;5009345;28;20041;-71
2022/08/08 08:36:54;;;;;;;;;;;39.90;31.60;;;;;;5015520;28;20390;-71
2022/08/08 08:39:20;;;;;;;;;;;40.60;31.80;;;;;;5005400;28;19944;-71
2022/08/08 08:41:46;;;;;;;;;;;39.20;32.10;;;;;;5008206;28;19921;-71
2022/08/08 08:44:13;;;;;;;;;;;40.00;32.20;;;;;;5007513;28;20011;-71
2022/08/08 08:46:39;;;;;;;;;;;40.40;30.90;;;;;;5003513;28;20180;-71
2022/08/08 08:49:05;;;;;;;;;;;40.80;30.00;;;;;;5001612;28;19921;-75
2022/08/08 08:51:30;;;;;;;;;;;40.80;30.00;;;;;;5009731;28;19963;-73
2022/08/08 08:53:59;;;;;;;;;;;40.50;29.30;;;;;;4991361;28;19917;-73
2022/08/08 08:56:25;;;;;;;;;;;40.30;29.30;;;;;;5007102;28;19960;-74
2022/08/08 08:58:51;;;;;;;;;;;39.90;29.60;;;;;;5008670;28;19964;-72
2022/08/08 09:01:18;;;;;;;;;;;39.80;31.30;;;;;;5011997;28;19980;-73
2022/08/08 09:03:47;;;;;;;;;;;39.90;30.70;;;;;;5017461;28;20428;-72
2022/08/08 09:06:26;;;;;;;;;;;39.60;30.30;;;;;;5006571;28;19917;-73
2022/08/08 09:09:07;;;;;;;;;;;40.10;28.90;;;;;;5008537;28;20359;-72
2022/08/08 09:11:34;;;;;;;;;;;40.20;30.00;;;;;;5011015;28;19917;-71
2022/08/08 09:14:00;;;;;;;;;;;39.40;30.80;;;;;;5002165;28;19953;-74
2022/08/08 09:16:26;;;;;;;;;;;39.40;28.30;;;;;;5004582;28;19917;-72
2022/08/08 09:18:52;;;;;;;;;;;39.20;28.00;;;;;;4996423;28;19921;-71
2022/08/08 09:21:18;;;;;;;;;;;39.10;28.00;;;;;;4999000;28;19935;-72
2022/08/08 09:23:43;;;;;;;;;;;38.70;29.00;;;;;;5012502;28;19917;-71
2022/08/08 09:26:12;;;;;;;;;;;38.70;28.10;;;;;;5008654;28;20414;-71
2022/08/08 09:28:39;;;;;;;;;;;38.20;28.30;;;;;;5018241;28;20055;-71
2022/08/08 09:31:13;;;;;;;;;;;38.50;29.90;;;;;;5026243;28;20011;-72
2022/08/08 09:33:40;;;;;;;;;;;38.60;28.80;;;;;;5038996;28;19948;-71
2022/08/08 09:36:09;;;;;;;;;;;38.00;30.50;;;;;;5007179;28;19932;-71
2022/08/08 09:38:46;;;;;;;;;;;37.70;30.80;;;;;;5014720;28;19924;-71
2022/08/08 09:41:15;;;;;;;;;;;37.80;29.60;;;;;;5009700;28;20325;-71
2022/08/08 09:43:48;;;;;;;;;;;36.60;29.30;;;;;;5006242;28;19917;-71
2022/08/08 09:46:15;;;;;;;;;;;37.90;29.50;;;;;;5009395;28;20752;-70
2022/08/08 09:48:44;;;;;;;;;;;37.70;29.70;;;;;;4987134;28;20161;-71
2022/08/08 09:51:13;;;;;;;;;;;37.00;29.50;;;;;;4995860;28;20492;-71
2022/08/08 09:53:47;;;;;;;;;;;37.50;28.90;;;;;;4997180;28;20374;-72
2022/08/08 09:56:13;;;;;;;;;;;37.90;28.20;;;;;;5008228;28;20399;-71
2022/08/08 09:58:41;;;;;;;;;;;37.80;28.20;;;;;;5028463;28;19931;-72
2022/08/08 10:01:10;;;;;;;;;;;37.70;30.10;;;;;;5015790;28;19933;-72
2022/08/08 10:03:36;;;;;;;;;;;38.00;30.70;;;;;;5017970;28;20233;-72
2022/08/08 10:06:14;;;;;;;;;;;38.30;30.30;;;;;;5012678;28;19921;-72
2022/08/08 10:08:44;;;;;;;;;;;38.60;28.90;;;;;;5013290;28;19917;-72
2022/08/08 10:11:10;;;;;;;;;;;37.40;29.10;;;;;;5002213;28;19917;-72
2022/08/08 10:13:36;;;;;;;;;;;37.30;29.70;;;;;;4991541;28;20075;-72
2022/08/08 10:16:02;;;;;;;;;;;37.10;29.80;;;;;;5031498;28;20370;-71
2022/08/08 10:18:30;;;;;;;;;;;37.20;29.70;;;;;;5038437;28;19917;-72
2022/08/08 10:21:02;;;;;;;;;;;37.30;31.20;;;;;;5003748;28;20334;-72
2022/08/08 10:23:34;;;;;;;;;;;37.70;31.00;;;;;;4994216;28;19993;-72
2022/08/08 10:26:01;;;;;;;;;;;38.00;30.80;;;;;;5015025;28;20015;-72
2022/08/08 10:28:28;;;;;;;;;;;38.40;29.50;;;;;;5012740;28;20007;-72
2022/08/08 10:30:56;;;;;;;;;;;38.70;30.00;;;;;;4996125;28;19984;-72
2022/08/08 10:33:31;;;;;;;;;;;38.40;29.30;;;;;;4999681;28;19920;-72
2022/08/08 10:36:00;;;;;;;;;;;38.60;29.00;;;;;;5017194;28;19913;-71
2022/08/08 10:38:29;;;;;;;;;;;38.80;28.40;;;;;;5020248;28;19917;-72
2022/08/08 10:40:55;;;;;;;;;;;38.30;30.70;;;;;;5021418;28;19979;-72
2022/08/08 10:43:20;;;;;;;;;;;38.10;29.80;;;;;;5021967;28;20112;-72
2022/08/08 10:45:48;;;;;;;;;;;38.20;28.90;;;;;;5014023;28;19913;-72
2022/08/08 10:48:14;;;;;;;;;;;38.00;31.10;;;;;;5019321;28;19917;-72
2022/08/08 10:50:39;;;;;;;;;;;38.10;29.50;;;;;;5020722;28;19971;-72
2022/08/08 10:53:08;;;;;;;;;;;37.80;30.50;;;;;;5020054;28;20011;-72
2022/08/08 10:55:36;;;;;;;;;;;38.00;28.70;;;;;;5017821;28;20281;-72
2022/08/08 10:58:03;;;;;;;;;;;37.60;29.90;;;;;;5020748;28;20007;-72
2022/08/08 11:00:29;;;;;;;;;;;36.80;30.00;;;;;;4987465;28;19922;-72
2022/08/08 11:02:56;;;;;;;;;;;37.10;31.30;;;;;;5010850;28;19975;-72
2022/08/08 11:05:22;;;;;;;;;;;36.50;32.00;;;;;;5016401;28;19968;-72
2022/08/08 11:07:48;;;;;;;;;;;36.30;31.70;;;;;;5004130;28;19956;-72
2022/08/08 11:10:15;;;;;;;;;;;35.20;32.60;;;;;;5001259;28;20367;-72
2022/08/08 11:12:48;;;;;;;;;;;35.00;31.90;;;;;;5003665;28;20296;-72
2022/08/08 11:15:15;;;;;;;;;;;35.00;34.10;;;;;;5015577;28;20025;-72
2022/08/08 11:17:41;;;;;;;;;;;36.00;34.70;;;;;;5019180;28;20294;-71
2022/08/08 11:20:08;;;;;;;;;;;36.50;30.30;;;;;;5017861;28;20216;-77
2022/08/08 11:22:33;;;;;;;;;;;36.60;29.60;;;;;;5019560;28;19924;-71
2022/08/08 11:25:01;;;;;;;;;;;36.40;29.90;;;;;;5036241;28;19913;-73
2022/08/08 11:27:33;;;;;;;;;;;36.30;32.10;;;;;;5018216;28;19916;-72
2022/08/08 11:29:59;;;;;;;;;;;36.60;33.10;;;;;;5026458;28;20104;-72
2022/08/08 11:32:26;;;;;;;;;;;37.30;32.00;;;;;;5000504;28;19936;-72
2022/08/08 11:35:04;;;;;;;;;;;36.70;31.30;;;;;;5001300;28;19928;-72
2022/08/08 11:37:30;;;;;;;;;;;36.40;33.30;;;;;;5017434;28;20317;-71
2022/08/08 11:39:57;;;;;;;;;;;36.00;30.50;;;;;;5014328;28;20388;-72
2022/08/08 11:42:23;;;;;;;;;;;35.60;35.20;;;;;;5012016;28;19947;-72
2022/08/08 11:44:51;;;;;;;;;;;35.30;32.80;;;;;;5018135;28;20668;-70
2022/08/08 11:47:17;;;;;;;;;;;34.00;33.40;;;;;;5017070;28;19921;-72
2022/08/08 11:49:43;;;;;;;;;;;33.60;35.00;;;;;;5013450;28;19921;-72
2022/08/08 11:52:09;;;;;;;;;;;33.50;36.30;;;;;;5005453;28;19917;-71
2022/08/08 11:54:35;;;;;;;;;;;33.50;37.70;;;;;;5002582;28;19917;-72
2022/08/08 11:57:10;;;;;;;;;;;33.60;37.40;;;;;;5022107;28;20684;-72
2022/08/08 11:59:41;;;;;;;;;;;33.40;36.80;;;;;;5018756;28;20384;-71
2022/08/08 12:02:07;;;;;;;;;;;33.50;34.50;;;;;;5022688;28;19916;-72
2022/08/08 12:04:35;;;;;;;;;;;33.30;35.50;;;;;;5026199;28;19925;-72
2022/08/08 12:07:01;;;;;;;;;;;33.10;34.70;;;;;;5025065;28;20018;-72
2022/08/08 12:09:27;;;;;;;;;;;32.90;35.10;;;;;;5018208;28;19964;-72
2022/08/08 12:11:53;;;;;;;;;;;32.60;37.30;;;;;;5019098;28;20106;-71
2022/08/08 12:14:22;;;;;;;;;;;32.50;35.60;;;;;;5018155;28;20333;-72
2022/08/08 12:16:51;;;;;;;;;;;32.60;39.80;;;;;;5002825;28;20380;-72
2022/08/08 12:19:16;;;;;;;;;;;32.90;38.40;;;;;;5012007;28;19971;-72
2022/08/08 12:21:42;;;;;;;;;;;32.90;37.80;;;;;;4996502;28;20066;-72
2022/08/08 12:24:08;;;;;;;;;;;33.10;35.50;;;;;;5013360;28;20380;-71
2022/08/08 12:26:37;;;;;;;;;;;32.80;37.60;;;;;;5015592;28;20398;-71
2022/08/08 12:29:21;;;;;;;;;;;32.90;36.70;;;;;;5031018;28;19913;-72
2022/08/08 12:31:47;;;;;;;;;;;32.70;36.30;;;;;;5014848;28;20159;-71
2022/08/08 12:34:12;;;;;;;;;;;32.20;36.80;;;;;;4999061;28;20402;-71
2022/08/08 12:36:39;;;;;;;;;;;31.10;38.70;;;;;;5012952;28;19913;-71
2022/08/08 12:39:05;;;;;;;;;;;30.30;39.20;;;;;;5007459;28;19963;-71
2022/08/08 12:41:32;;;;;;;;;;;29.90;41.30;;;;;;5029971;28;19920;-72
2022/08/08 12:44:05;;;;;;;;;;;29.40;43.30;;;;;;5029796;28;19924;-71
2022/08/08 12:46:30;;;;;;;;;;;29.80;43.10;;;;;;5022404;28;20086;-71
2022/08/08 12:49:00;;;;;;;;;;;29.90;43.80;;;;;;5015550;28;19917;-70
2022/08/08 12:51:26;;;;;;;;;;;30.70;44.30;;;;;;5019971;28;19999;-71
2022/08/08 12:53:59;;;;;;;;;;;31.30;40.90;;;;;;5018785;28;19921;-71
2022/08/08 12:56:38;;;;;;;;;;;31.10;43.30;;;;;;5004388;28;19952;-71
2022/08/08 12:59:14;;;;;;;;;;;31.30;43.20;;;;;;5028008;28;19916;-71
2022/08/08 13:01:41;;;;;;;;;;;31.90;42.50;;;;;;5016476;28;19929;-71
2022/08/08 13:04:16;;;;;;;;;;;31.80;40.80;;;;;;5009103;28;19937;-71
2022/08/08 13:06:53;;;;;;;;;;;31.70;42.10;;;;;;5023688;28;19967;-71
2022/08/08 13:09:33;;;;;;;;;;;31.20;42.00;;;;;;5025296;28;19964;-71
2022/08/08 13:11:59;;;;;;;;;;;30.90;41.20;;;;;;5011915;28;20249;-71
2022/08/08 13:14:35;;;;;;;;;;;30.50;41.30;;;;;;5022969;28;19917;-71
2022/08/08 13:17:01;;;;;;;;;;;30.20;43.30;;;;;;5027774;28;19920;-71
2022/08/08 13:19:27;;;;;;;;;;;29.50;43.00;;;;;;5028419;28;20418;-71
2022/08/08 13:21:52;;;;;;;;;;;29.70;47.00;;;;;;5006226;28;19921;-71
2022/08/08 13:24:18;;;;;;;;;;;30.20;44.20;;;;;;5025151;28;19933;-71
2022/08/08 13:26:44;;;;;;;;;;;30.40;44.40;;;;;;5014082;28;20398;-71
2022/08/08 13:29:10;;;;;;;;;;;29.90;43.50;;;;;;5013366;28;19917;-71
2022/08/08 13:31:45;;;;;;;;;;;29.50;45.10;;;;;;5025613;28;19917;-71
2022/08/08 13:34:17;;;;;;;;;;;29.40;45.80;;;;;;5025114;28;20370;-71
2022/08/08 13:36:43;;;;;;;;;;;29.50;45.20;;;;;;5024510;28;19921;-70
2022/08/08 13:39:12;;;;;;;;;;;29.70;45.20;;;;;;4670541;28;9999687;-70
2022/08/08 13:41:37;;;;;;;;;;;29.00;44.80;;;;;;5011906;28;20399;-71
2022/08/08 13:44:05;;;;;;;;;;;28.70;48.10;;;;;;5014678;28;19917;-71
2022/08/08 13:46:30;;;;;;;;;;;28.90;48.30;;;;;;5021543;28;20164;-71
2022/08/08 13:48:56;;;;;;;;;;;29.30;48.20;;;;;;5014264;28;19923;-71
2022/08/08 13:51:22;;;;;;;;;;;29.00;45.20;;;;;;5000406;28;20089;-71
2022/08/08 13:53:52;;;;;;;;;;;29.00;46.40;;;;;;5019661;28;20396;-70
2022/08/08 13:56:27;;;;;;;;;;;29.10;47.50;;;;;;5019814;28;19917;-71
2022/08/08 13:58:52;;;;;;;;;;;29.50;46.10;;;;;;5019734;28;20068;-70
2022/08/08 14:01:18;;;;;;;;;;;29.60;46.70;;;;;;5017397;28;19925;-70
2022/08/08 14:03:50;;;;;;;;;;;29.70;44.70;;;;;;5023771;28;19960;-71
2022/08/08 14:06:16;;;;;;;;;;;29.50;45.10;;;;;;5017181;28;19917;-71
2022/08/08 14:08:43;;;;;;;;;;;29.20;45.90;;;;;;5015480;28;19932;-70
2022/08/08 14:11:10;;;;;;;;;;;29.10;46.40;;;;;;5015321;28;19921;-71
2022/08/08 14:13:38;;;;;;;;;;;29.00;46.10;;;;;;5020776;28;19921;-71
2022/08/08 14:16:04;;;;;;;;;;;29.10;48.50;;;;;;5001580;28;19940;-70
2022/08/08 14:18:29;;;;;;;;;;;29.10;47.00;;;;;;5022112;28;21599;-71
2022/08/08 14:21:01;;;;;;;;;;;29.20;45.90;;;;;;5017803;28;20147;-70
2022/08/08 14:23:27;;;;;;;;;;;29.10;48.90;;;;;;5013736;28;20392;-70
2022/08/08 14:25:53;;;;;;;;;;;29.00;46.90;;;;;;5021968;28;20020;-70
2022/08/08 14:28:19;;;;;;;;;;;28.80;46.90;;;;;;5020297;28;19925;-70
2022/08/08 14:30:45;;;;;;;;;;;28.60;47.70;;;;;;5023466;28;20077;-70
2022/08/08 14:33:12;;;;;;;;;;;28.50;48.90;;;;;;5024109;28;19917;-70
2022/08/08 14:35:37;;;;;;;;;;;28.80;50.60;;;;;;5021436;28;19916;-70
2022/08/08 14:38:07;;;;;;;;;;;29.00;46.80;;;;;;5027297;28;19916;-70